createdAt,value
2023-05-19T00:04:02.338Z,18.33
2023-05-19T00:09:07.927Z,17.98
2023-05-19T00:14:11.280Z,18.55
2023-05-19T00:19:14.340Z,18.92
2023-05-19T00:24:17.389Z,19.80
2023-05-19T00:29:20.299Z,20.77
2023-05-19T00:34:23.203Z,18.60
2023-05-19T00:39:26.101Z,17.35
2023-05-19T00:44:29.006Z,15.68
2023-05-19T00:49:32.005Z,15.07
2023-05-19T00:54:35.530Z,14.57
2023-05-19T00:59:38.426Z,14.30
2023-05-19T01:04:42.271Z,14.93
2023-05-19T01:09:45.364Z,16.27
2023-05-19T01:14:48.418Z,17.20
2023-05-19T01:19:57.459Z,18.73
2023-05-19T01:25:23.699Z,17.48
2023-05-19T01:30:36.144Z,16.02
2023-05-19T01:35:39.746Z,16.25
2023-05-19T01:40:44.248Z,15.85
2023-05-19T01:45:47.605Z,15.90
2023-05-19T01:50:50.823Z,16.13
2023-05-19T01:55:55.615Z,15.15
2023-05-19T02:06:37.546Z,15.38
2023-05-19T02:11:51.773Z,13.20
2023-05-19T02:16:54.912Z,14.48
2023-05-19T02:21:58.345Z,15.07
2023-05-19T02:27:01.598Z,16.38
2023-05-19T02:32:04.739Z,12.88
2023-05-19T02:37:08.492Z,13.80
2023-05-19T02:42:12.896Z,12.98
2023-05-19T02:47:16.213Z,11.70
2023-05-19T02:52:20.202Z,11.35
2023-05-19T02:57:23.229Z,10.27
2023-05-19T03:02:26.325Z,12.13
2023-05-19T03:07:29.355Z,12.07
2023-05-19T03:12:32.918Z,12.27
2023-05-19T03:17:36.864Z,8.98
2023-05-19T03:22:40.042Z,7.70
2023-05-19T03:27:42.985Z,7.43
2023-05-19T03:32:46.172Z,8.75
2023-05-19T03:37:49.440Z,8.27
2023-05-19T03:42:52.548Z,9.57
2023-05-19T03:47:55.620Z,8.15
2023-05-19T03:53:37.004Z,8.48
2023-05-19T03:58:43.853Z,7.88
2023-05-19T04:03:47.097Z,7.30
2023-05-19T04:08:50.334Z,6.35
2023-05-19T04:13:53.781Z,5.65
2023-05-19T04:18:57.310Z,5.50
2023-05-19T04:24:00.970Z,5.65
2023-05-19T04:29:05.329Z,4.55
2023-05-19T04:34:08.697Z,5.10
2023-05-19T04:39:12.817Z,4.80
2023-05-19T04:44:19.702Z,4.60
2023-05-19T04:49:25.816Z,4.40
2023-05-19T04:54:29.005Z,3.95
2023-05-19T04:59:32.604Z,3.05
2023-05-19T05:04:36.692Z,3.15
2023-05-19T05:09:39.601Z,3.35
2023-05-19T05:14:43.593Z,4.15
2023-05-19T05:19:47.002Z,4.22
2023-05-19T05:24:50.227Z,4.22
2023-05-19T05:29:55.620Z,3.87
2023-05-19T05:34:59.892Z,4.25
2023-05-19T05:40:04.206Z,3.90
2023-05-19T05:45:08.038Z,5.18
2023-05-19T05:50:12.011Z,4.72
2023-05-19T05:55:18.043Z,4.68
2023-05-19T06:00:22.821Z,4.55
2023-05-19T06:05:29.068Z,5.18
2023-05-19T06:10:33.763Z,4.97
2023-05-19T06:15:37.435Z,4.65
2023-05-19T06:20:53.229Z,4.55
2023-05-19T06:25:56.889Z,4.50
2023-05-19T06:31:00.546Z,4.32
2023-05-19T06:36:24.790Z,4.40
2023-05-19T06:41:31.209Z,4.63
2023-05-19T06:46:35.049Z,3.83
2023-05-19T06:51:38.111Z,3.92
2023-05-19T06:56:41.512Z,4.28
2023-05-19T07:01:44.859Z,3.90
2023-05-19T07:06:48.350Z,3.42
2023-05-19T07:11:51.802Z,3.60
2023-05-19T07:16:55.037Z,4.05
2023-05-19T07:21:59.713Z,3.88
2023-05-19T07:27:02.746Z,3.53
2023-05-19T07:32:06.289Z,3.50
2023-05-19T07:37:09.257Z,2.80
2023-05-19T07:42:12.153Z,2.17
2023-05-19T07:47:15.016Z,2.70
2023-05-19T07:52:18.742Z,2.60
2023-05-19T07:57:21.661Z,2.80
2023-05-19T08:02:24.650Z,2.40
2023-05-19T08:07:30.342Z,2.50
2023-05-19T08:12:33.204Z,2.90
2023-05-19T08:17:36.264Z,2.08
2023-05-19T08:22:39.630Z,2.13
2023-05-19T08:27:42.599Z,1.83
2023-05-19T08:32:45.569Z,1.73
2023-05-19T08:37:48.410Z,2.00
2023-05-19T08:42:51.757Z,2.20
2023-05-19T08:47:54.889Z,1.85
2023-05-19T08:53:25.120Z,1.70
2023-05-19T08:58:35.335Z,2.50
2023-05-19T09:03:39.666Z,2.20
2023-05-19T09:08:43.182Z,2.20
2023-05-19T09:13:46.556Z,1.48
2023-05-19T09:18:56.872Z,1.92
2023-05-19T09:24:06.613Z,1.80
2023-05-19T09:29:14.176Z,1.75
2023-05-19T09:34:17.446Z,1.98
2023-05-19T09:39:21.945Z,2.00
2023-05-19T09:44:30.018Z,2.00
2023-05-19T09:49:33.264Z,1.67
2023-05-19T09:54:36.624Z,1.80
2023-05-19T09:59:39.864Z,1.45
2023-05-19T10:04:43.167Z,1.55
2023-05-19T10:09:46.802Z,1.35
2023-05-19T10:14:49.721Z,1.65
2023-05-19T10:19:53.161Z,1.40
2023-05-19T10:24:56.437Z,1.48
2023-05-19T10:30:03.083Z,1.20
2023-05-19T10:35:23.457Z,1.75
2023-05-19T10:40:39.788Z,1.40
2023-05-19T10:45:48.636Z,1.40
2023-05-19T10:50:55.621Z,1.90
2023-05-19T10:56:04.459Z,1.55
2023-05-19T11:01:14.687Z,1.40
2023-05-19T11:06:18.954Z,1.27
2023-05-19T11:11:23.418Z,1.20
2023-05-19T11:16:30.951Z,1.53
2023-05-19T11:21:55.391Z,1.35
2023-05-19T11:26:58.290Z,1.40
2023-05-19T11:32:01.336Z,1.27
2023-05-19T11:37:05.275Z,1.20
2023-05-19T11:42:11.844Z,1.33
2023-05-19T11:47:15.658Z,2.00
2023-05-19T11:52:18.590Z,1.70
2023-05-19T11:57:21.575Z,1.63
2023-05-19T12:02:26.460Z,1.58
2023-05-19T12:07:29.844Z,1.40
2023-05-19T12:12:32.828Z,1.50
2023-05-19T12:17:36.162Z,2.20
2023-05-19T12:22:39.234Z,1.38
2023-05-19T12:27:43.688Z,1.30
2023-05-19T12:32:47.335Z,1.90
2023-05-19T12:37:50.979Z,2.20
2023-05-19T12:42:59.448Z,1.40
2023-05-19T12:48:12.030Z,2.08
2023-05-19T12:53:15.959Z,2.13
2023-05-19T12:58:19.577Z,2.90
2023-05-19T13:03:22.732Z,2.60
2023-05-19T13:08:28.174Z,3.00
2023-05-19T13:13:31.941Z,2.25
2023-05-19T13:18:39.318Z,2.15
2023-05-19T13:23:43.392Z,2.50
2023-05-19T13:28:47.060Z,2.15
2023-05-19T13:33:50.344Z,2.85
2023-05-19T13:38:53.417Z,2.20
2023-05-19T13:43:59.668Z,2.90
2023-05-19T13:49:02.748Z,2.90
2023-05-19T13:54:05.867Z,2.50
2023-05-19T13:59:09.080Z,3.10
2023-05-19T14:04:12.411Z,3.30
2023-05-19T14:09:16.452Z,2.85
2023-05-19T14:14:19.565Z,3.17
2023-05-19T14:19:23.571Z,3.58
2023-05-19T14:24:26.892Z,3.38
2023-05-19T14:29:31.714Z,3.75
2023-05-19T14:34:35.823Z,4.20
2023-05-19T14:39:38.915Z,5.03
2023-05-19T14:44:41.903Z,5.10
2023-05-19T14:49:44.950Z,5.50
2023-05-19T14:54:47.929Z,5.57
2023-05-19T14:59:51.117Z,6.38
2023-05-19T15:04:54.575Z,6.45
2023-05-19T15:09:57.744Z,6.80
2023-05-19T15:15:00.799Z,6.97
2023-05-19T15:20:04.385Z,7.97
2023-05-19T15:25:08.491Z,9.90
2023-05-19T15:30:11.894Z,10.35
2023-05-19T15:35:15.113Z,10.35
2023-05-19T15:40:18.669Z,9.90
2023-05-19T15:45:22.788Z,9.73
2023-05-19T15:50:27.170Z,9.50
2023-05-19T15:55:30.176Z,10.13
2023-05-19T16:00:33.689Z,11.40
2023-05-19T16:05:36.820Z,9.45
2023-05-19T16:10:40.068Z,10.48
2023-05-19T16:15:43.149Z,14.77
2023-05-19T16:20:46.346Z,14.93
2023-05-19T16:25:50.848Z,14.40
2023-05-19T16:30:59.089Z,14.13
2023-05-19T16:36:02.219Z,13.70
2023-05-19T16:41:07.733Z,13.77
2023-05-19T16:46:12.537Z,12.85
2023-05-19T16:51:15.596Z,14.63
2023-05-19T16:56:18.638Z,13.25
2023-05-19T17:01:22.183Z,16.25
2023-05-19T17:06:25.346Z,23.27
2023-05-19T17:11:28.618Z,28.60
2023-05-19T17:16:31.614Z,28.80
2023-05-19T17:21:34.765Z,28.77
2023-05-19T17:26:37.818Z,27.52
2023-05-19T17:31:41.954Z,27.40
2023-05-19T17:36:50.038Z,22.80
2023-05-19T17:41:53.132Z,27.08
2023-05-19T17:46:56.439Z,25.35
2023-05-19T17:52:00.152Z,13.98
2023-05-19T17:57:04.662Z,12.55
2023-05-19T18:02:08.641Z,12.20
2023-05-19T18:07:12.578Z,20.52
2023-05-19T18:12:15.823Z,22.80
2023-05-19T18:17:18.770Z,13.20
2023-05-19T18:22:22.562Z,24.95
2023-05-19T18:27:25.747Z,18.38
2023-05-19T18:32:30.244Z,22.70
2023-05-19T18:37:33.154Z,24.45
2023-05-19T18:42:36.219Z,21.77
2023-05-19T18:47:39.533Z,25.77
2023-05-19T18:52:43.040Z,25.15
2023-05-19T18:57:46.498Z,24.17
2023-05-19T19:02:50.014Z,23.45
2023-05-19T19:07:53.780Z,18.58
2023-05-19T19:12:58.321Z,17.38
2023-05-19T19:18:01.297Z,14.73
2023-05-19T19:23:06.995Z,22.90
2023-05-19T19:28:10.880Z,21.35
2023-05-19T19:33:13.864Z,26.15
2023-05-19T19:38:17.112Z,24.35
2023-05-19T19:43:20.139Z,22.50
2023-05-19T19:48:23.086Z,22.58
2023-05-19T19:53:26.168Z,24.52
2023-05-19T19:58:29.738Z,19.23
2023-05-19T20:03:33.847Z,21.95
2023-05-19T20:08:37.025Z,20.80
2023-05-19T20:13:39.996Z,21.23
2023-05-19T20:18:43.037Z,19.23
2023-05-19T20:23:46.640Z,18.17
2023-05-19T20:28:49.560Z,17.90
2023-05-19T20:33:52.726Z,17.23
2023-05-19T20:38:56.257Z,17.42
2023-05-19T20:43:59.351Z,17.48
2023-05-19T20:49:02.605Z,17.65
2023-05-19T20:54:07.708Z,17.42
2023-05-19T20:59:10.881Z,17.95
2023-05-19T21:04:14.786Z,18.33
2023-05-19T21:09:17.966Z,18.27
2023-05-19T21:14:21.827Z,18.35
2023-05-19T21:19:24.994Z,18.95
2023-05-19T21:24:28.810Z,18.95
2023-05-19T21:29:31.894Z,20.52
2023-05-19T21:34:35.042Z,19.10
2023-05-19T21:39:38.126Z,18.25
2023-05-19T21:44:41.367Z,18.55
2023-05-19T21:49:44.569Z,17.52
2023-05-19T21:54:48.323Z,19.38
2023-05-19T21:59:51.637Z,18.58
2023-05-19T22:04:54.727Z,17.95
2023-05-19T22:09:57.632Z,18.10
2023-05-19T22:15:01.265Z,17.77
2023-05-19T22:20:06.048Z,17.97
2023-05-19T22:25:09.223Z,17.30
2023-05-19T22:30:12.637Z,17.85
2023-05-19T22:35:15.500Z,19.00
2023-05-19T22:40:18.608Z,18.98
2023-05-19T22:45:21.773Z,19.40
2023-05-19T22:50:24.814Z,19.65
2023-05-19T22:55:27.852Z,20.05
2023-05-19T23:00:30.898Z,20.95
2023-05-19T23:05:34.285Z,22.48
2023-05-19T23:10:37.353Z,22.25
2023-05-19T23:15:40.214Z,22.45
2023-05-19T23:20:43.165Z,23.95
2023-05-19T23:25:46.548Z,22.70
2023-05-19T23:30:49.508Z,20.98
2023-05-19T23:35:52.411Z,20.63
2023-05-19T23:40:55.345Z,21.55
2023-05-19T23:45:58.834Z,22.15
2023-05-19T23:51:01.917Z,21.95
2023-05-19T23:56:04.968Z,20.58
